Time;durP1;ratioP1;P1;durP2;ratioP2;P2;SDS_P1;SDS_P2;PMS_P1;PMS_P2;Temp;Humidity;BMP_temperature;BMP_pressure;BME280_temperature;BME280_humidity;BME280_pressure;Samples;Min_cycle;Max_cycle;Signal;HPM_P1;HPM_P2
2024/03/05 00:02:01;;;;;;;107.78;45.63;;;8.20;99.90;;;-148.53;100.00;63986.66;5024081;28;20033;-81
2024/03/05 00:04:27;;;;;;;111.43;46.95;;;8.30;99.90;;;-148.53;100.00;63986.66;5029202;28;20496;-80
2024/03/05 00:06:52;;;;;;;115.63;47.50;;;8.20;99.90;;;-148.53;100.00;63986.66;5018640;28;20026;-80
2024/03/05 00:09:18;;;;;;;112.22;48.58;;;8.20;99.90;;;-148.53;100.00;63986.66;5022441;28;20086;-80
2024/03/05 00:11:45;;;;;;;115.97;50.72;;;8.20;99.90;;;-148.53;100.00;63986.66;5025441;28;20128;-80
2024/03/05 00:14:11;;;;;;;118.75;49.33;;;8.20;99.90;;;-148.53;100.00;63986.66;5018281;28;20037;-80
2024/03/05 00:16:36;;;;;;;106.82;46.67;;;8.20;99.90;;;-148.53;100.00;63986.66;5022119;28;20037;-80
2024/03/05 00:19:02;;;;;;;104.32;46.15;;;8.20;99.90;;;-148.53;100.00;63986.66;5022331;28;20489;-81
2024/03/05 00:21:28;;;;;;;121.85;48.42;;;8.20;99.90;;;-148.53;100.00;63986.66;5026366;28;20052;-80
2024/03/05 00:23:53;;;;;;;124.00;48.70;;;8.20;99.90;;;-148.53;100.00;63986.66;5018827;28;20037;-80
2024/03/05 00:26:21;;;;;;;121.78;48.45;;;8.20;99.90;;;-148.53;100.00;63986.66;5016906;28;20452;-80
2024/03/05 00:28:47;;;;;;;115.40;48.85;;;8.20;99.90;;;-148.53;100.00;63986.66;5037169;28;20034;-79
2024/03/05 00:31:13;;;;;;;114.53;47.97;;;8.20;99.90;;;-148.53;100.00;63986.66;5027904;28;20095;-80
2024/03/05 00:33:39;;;;;;;114.10;48.17;;;8.20;99.90;;;-148.53;100.00;63986.66;5015953;28;20129;-80
2024/03/05 00:36:05;;;;;;;119.18;48.67;;;8.20;99.90;;;-148.53;100.00;63986.66;5022232;28;20038;-80
2024/03/05 00:38:30;;;;;;;121.18;48.33;;;8.20;99.90;;;-148.53;100.00;63986.66;5037129;28;20160;-81
2024/03/05 00:40:56;;;;;;;119.50;49.30;;;8.20;99.90;;;-148.53;100.00;63986.66;5016017;28;20113;-81
2024/03/05 00:43:22;;;;;;;126.03;51.85;;;8.20;99.90;;;-148.53;100.00;63986.66;5026427;28;20092;-80
2024/03/05 00:45:48;;;;;;;116.15;47.92;;;8.10;99.90;;;-148.53;100.00;63986.66;5025147;28;20175;-80
2024/03/05 00:48:14;;;;;;;124.53;49.13;;;8.10;99.90;;;-148.53;100.00;63986.66;5018487;28;20034;-80
2024/03/05 00:50:40;;;;;;;119.45;47.67;;;8.10;99.90;;;-148.53;100.00;63986.66;5015714;28;20041;-81
2024/03/05 00:53:06;;;;;;;120.85;49.92;;;8.10;99.90;;;-148.53;100.00;63986.66;5025466;28;20041;-80
2024/03/05 00:55:32;;;;;;;122.90;49.90;;;8.10;99.90;;;-148.53;100.00;63986.66;5024621;28;20065;-79
2024/03/05 00:57:57;;;;;;;115.35;48.03;;;8.10;99.90;;;-148.53;100.00;63986.66;5026581;28;20103;-79
2024/03/05 01:00:24;;;;;;;124.25;49.70;;;8.10;99.90;;;-148.53;100.00;63986.66;5024950;28;20053;-82
2024/03/05 01:02:50;;;;;;;119.97;49.78;;;8.00;99.90;;;-148.53;100.00;63986.66;5022497;28;20040;-80
2024/03/05 01:05:18;;;;;;;134.88;51.03;;;8.00;99.90;;;-148.53;100.00;63986.66;5029412;28;20060;-79
2024/03/05 01:07:44;;;;;;;134.85;53.25;;;8.00;99.90;;;-148.53;100.00;63986.66;5030539;28;20083;-79
2024/03/05 01:10:10;;;;;;;119.53;49.80;;;8.00;99.90;;;-148.53;100.00;63986.66;5014107;28;20034;-80
2024/03/05 01:12:36;;;;;;;122.43;51.08;;;8.00;99.90;;;-148.53;100.00;63986.66;5021185;28;20032;-82
2024/03/05 01:15:03;;;;;;;125.25;49.40;;;8.00;99.90;;;-148.53;100.00;63986.66;5020515;28;20075;-80
2024/03/05 01:17:29;;;;;;;121.20;50.03;;;8.00;99.90;;;-148.53;100.00;63986.66;5020326;28;20049;-80
2024/03/05 01:19:55;;;;;;;122.07;50.85;;;8.00;99.90;;;-148.53;100.00;63986.66;5018612;28;20041;-81
2024/03/05 01:22:21;;;;;;;125.65;50.42;;;8.00;99.90;;;-148.53;100.00;63986.66;5034616;28;20080;-80
2024/03/05 01:24:50;;;;;;;128.05;51.20;;;8.00;99.90;;;-148.53;100.00;63986.66;5036507;28;20050;-81
2024/03/05 01:27:18;;;;;;;117.75;51.25;;;8.00;99.90;;;-148.53;100.00;63986.66;5018846;28;20052;-80
2024/03/05 01:29:44;;;;;;;132.10;51.25;;;7.90;99.90;;;-148.53;100.00;63986.66;5014554;28;20045;-80
2024/03/05 01:32:12;;;;;;;134.57;51.88;;;7.90;99.90;;;-148.53;100.00;63986.66;5021640;28;20397;-80
2024/03/05 01:34:43;;;;;;;134.02;51.55;;;7.90;99.90;;;-148.53;100.00;63986.66;5013498;28;20038;-80
2024/03/05 01:37:10;;;;;;;138.60;52.55;;;7.90;99.90;;;-148.53;100.00;63986.66;5014577;28;20065;-80
2024/03/05 01:39:36;;;;;;;136.00;53.17;;;7.80;99.90;;;-148.53;100.00;63986.66;5014706;28;20540;-81
2024/03/05 01:42:02;;;;;;;143.82;55.33;;;7.80;99.90;;;-148.53;100.00;63986.66;5021010;28;20113;-80
2024/03/05 01:44:28;;;;;;;142.93;55.08;;;7.80;99.90;;;-148.53;100.00;63986.66;5040159;28;20497;-80
2024/03/05 01:46:57;;;;;;;145.63;55.15;;;7.80;99.90;;;-148.53;100.00;63986.66;5023980;28;20041;-81
2024/03/05 01:49:25;;;;;;;155.10;55.58;;;7.80;99.90;;;-148.53;100.00;63986.66;5017717;28;20390;-82
2024/03/05 01:51:54;;;;;;;152.63;57.10;;;7.80;99.90;;;-148.53;100.00;63986.66;5026192;28;20034;-81
2024/03/05 01:54:22;;;;;;;150.88;55.10;;;7.80;99.90;;;-148.53;100.00;63986.66;5029113;28;20056;-80
2024/03/05 01:56:54;;;;;;;152.93;58.13;;;7.80;99.90;;;-148.53;100.00;63986.66;5021687;28;20029;-81
2024/03/05 01:59:22;;;;;;;149.15;56.47;;;7.80;99.90;;;-148.53;100.00;63986.66;5020147;28;20084;-81
2024/03/05 02:01:48;;;;;;;153.07;56.42;;;7.80;99.90;;;-148.53;100.00;63986.66;5005703;28;20033;-81
2024/03/05 02:04:15;;;;;;;150.48;56.05;;;7.80;99.90;;;-148.53;100.00;63986.66;5030179;28;20049;-80
2024/03/05 02:06:42;;;;;;;147.10;57.33;;;7.80;99.90;;;-148.53;100.00;63986.66;5031529;28;20498;-81
2024/03/05 02:09:11;;;;;;;159.20;58.37;;;7.80;99.90;;;-148.53;100.00;63986.66;5014357;28;20525;-81
2024/03/05 02:11:43;;;;;;;148.20;56.60;;;7.80;99.90;;;-148.53;100.00;63986.66;5025046;28;20647;-81
2024/03/05 02:14:10;;;;;;;137.43;53.38;;;7.80;99.90;;;-148.53;100.00;63986.66;5029489;28;20564;-81
2024/03/05 02:16:37;;;;;;;153.88;57.05;;;7.80;99.90;;;-148.53;100.00;63986.66;5025124;28;20033;-81
2024/03/05 02:19:04;;;;;;;144.23;55.78;;;7.80;99.90;;;-148.53;100.00;63986.66;5019943;28;20725;-81
2024/03/05 02:21:31;;;;;;;145.00;56.28;;;7.80;99.90;;;-148.53;100.00;63986.66;5016724;28;20044;-81
2024/03/05 02:23:57;;;;;;;139.75;53.83;;;7.80;99.90;;;-148.53;100.00;63986.66;5013886;28;20041;-80
2024/03/05 02:26:26;;;;;;;136.73;53.50;;;7.90;99.90;;;-148.53;100.00;63986.66;5016091;28;20424;-81
2024/03/05 02:28:53;;;;;;;138.32;54.90;;;7.80;99.90;;;-148.53;100.00;63986.66;5020895;28;20030;-81
2024/03/05 02:31:19;;;;;;;144.75;54.80;;;7.90;99.90;;;-148.53;100.00;63986.66;5019950;28;20059;-81
2024/03/05 02:33:48;;;;;;;138.27;55.28;;;7.90;99.90;;;-148.53;100.00;63986.66;5020835;28;21287;-81
2024/03/05 02:36:14;;;;;;;130.07;55.33;;;8.00;99.90;;;-148.53;100.00;63986.66;5020202;28;20037;-81
2024/03/05 02:38:39;;;;;;;133.70;52.75;;;8.00;99.90;;;-148.53;100.00;63986.66;5015842;28;20026;-81
2024/03/05 02:41:05;;;;;;;122.07;51.35;;;8.00;99.90;;;-148.53;100.00;63986.66;5034278;28;20397;-81
2024/03/05 02:43:31;;;;;;;124.72;52.10;;;8.10;99.90;;;-148.53;100.00;63986.66;5030892;28;20041;-81
2024/03/05 02:45:58;;;;;;;128.93;52.92;;;8.10;99.90;;;-148.53;100.00;63986.66;5025538;28;20041;-81
2024/03/05 02:48:24;;;;;;;124.13;52.15;;;8.00;99.90;;;-148.53;100.00;63986.66;5023189;28;20103;-81
2024/03/05 02:50:50;;;;;;;131.30;52.47;;;8.10;99.90;;;-148.53;100.00;63986.66;5025437;28;20045;-81
2024/03/05 02:53:17;;;;;;;123.50;51.53;;;8.10;99.90;;;-148.53;100.00;63986.66;5013420;28;20037;-81
2024/03/05 02:55:44;;;;;;;117.93;51.50;;;8.10;99.90;;;-148.53;100.00;63986.66;5023658;28;20046;-81
2024/03/05 02:58:11;;;;;;;110.05;48.80;;;8.10;99.90;;;-148.53;100.00;63986.66;5013708;28;20037;-81
2024/03/05 03:00:40;;;;;;;120.05;50.38;;;8.10;99.90;;;-148.53;100.00;63986.66;5020570;28;20441;-81
2024/03/05 03:03:06;;;;;;;116.28;49.58;;;8.10;99.90;;;-148.53;100.00;63986.66;5018091;28;20068;-81
2024/03/05 03:05:31;;;;;;;109.50;47.50;;;8.10;99.90;;;-148.53;100.00;63986.66;5013292;28;20144;-81
2024/03/05 03:07:58;;;;;;;108.32;49.38;;;8.00;99.90;;;-148.53;100.00;63986.66;5017828;28;20058;-81
2024/03/05 03:10:24;;;;;;;106.05;47.90;;;8.10;99.90;;;-148.53;100.00;63986.66;5013525;28;20088;-81
2024/03/05 03:12:50;;;;;;;114.70;49.40;;;8.10;99.90;;;-148.53;100.00;63986.66;5032992;28;20038;-82
2024/03/05 03:15:20;;;;;;;106.30;47.08;;;8.10;99.90;;;-148.53;100.00;63986.66;5019502;28;20429;-81
2024/03/05 03:17:46;;;;;;;101.75;46.78;;;8.10;99.90;;;-148.53;100.00;63986.66;5012998;28;20100;-82
2024/03/05 03:20:15;;;;;;;95.38;45.05;;;8.10;99.90;;;-148.53;100.00;63986.66;5039087;28;20048;-81
2024/03/05 03:22:44;;;;;;;93.80;44.92;;;8.00;99.90;;;-148.53;100.00;63986.66;5018291;28;20072;-81
2024/03/05 03:25:10;;;;;;;90.22;44.97;;;8.00;99.90;;;-148.53;100.00;63986.66;5030087;28;20064;-81
2024/03/05 03:27:42;;;;;;;85.35;42.80;;;8.00;99.90;;;-148.53;100.00;63986.66;5016196;28;20038;-80
2024/03/05 03:30:17;;;;;;;70.28;39.47;;;7.90;99.90;;;-148.53;100.00;63986.66;5016449;28;20045;-80
2024/03/05 03:32:44;;;;;;;68.50;39.47;;;7.90;99.90;;;-148.53;100.00;63986.66;5038214;28;20049;-80
2024/03/05 03:35:10;;;;;;;68.43;38.80;;;7.90;99.90;;;-148.53;100.00;63986.66;5028880;28;20030;-80
2024/03/05 03:37:36;;;;;;;66.50;38.13;;;7.80;99.90;;;-148.53;100.00;63986.66;5020572;28;20068;-81
2024/03/05 03:40:07;;;;;;;71.20;38.38;;;7.80;99.90;;;-148.53;100.00;63986.66;5027920;28;20087;-81
2024/03/05 03:42:33;;;;;;;66.88;38.85;;;7.80;99.90;;;-148.53;100.00;63986.66;5016093;28;20049;-80
2024/03/05 03:44:58;;;;;;;68.10;38.10;;;7.70;99.90;;;-148.53;100.00;63986.66;5023067;28;20041;-80
2024/03/05 03:47:24;;;;;;;66.45;38.22;;;7.70;99.90;;;-148.53;100.00;63986.66;5005976;28;20038;-81
2024/03/05 03:49:50;;;;;;;67.43;38.22;;;7.70;99.90;;;-148.53;100.00;63986.66;5011137;28;20115;-81
2024/03/05 03:52:16;;;;;;;70.10;38.40;;;7.70;99.90;;;-148.53;100.00;63986.66;5036746;28;20402;-80
2024/03/05 03:54:42;;;;;;;71.57;37.60;;;7.70;99.90;;;-148.53;100.00;63986.66;5017281;28;20072;-81
2024/03/05 03:57:10;;;;;;;63.75;35.47;;;7.60;99.90;;;-148.53;100.00;63986.66;5028109;28;20041;-81
2024/03/05 03:59:36;;;;;;;;;;;7.60;99.90;;;-148.53;100.00;63986.66;5018904;28;20038;-81
2024/03/05 04:02:03;;;;;;;58.88;31.70;;;7.60;99.90;;;-148.53;100.00;63986.66;5015157;28;19924;-81
2024/03/05 04:04:30;;;;;;;57.58;31.88;;;7.50;99.90;;;-148.53;100.00;63986.66;5030290;28;20057;-81
2024/03/05 04:06:56;;;;;;;58.70;33.03;;;7.50;99.90;;;-148.53;100.00;63986.66;5023257;28;20474;-81
2024/03/05 04:09:21;;;;;;;58.30;32.42;;;7.50;99.90;;;-148.53;100.00;63986.66;5021837;28;20091;-81
2024/03/05 04:11:47;;;;;;;59.75;32.95;;;7.40;99.90;;;-148.53;100.00;63986.66;5016880;28;20099;-81
2024/03/05 04:14:13;;;;;;;52.83;31.67;;;7.50;99.90;;;-148.53;100.00;63986.66;5022405;28;20050;-80
2024/03/05 04:16:40;;;;;;;55.15;32.88;;;7.40;99.90;;;-148.53;100.00;63986.66;5020679;28;20041;-81
2024/03/05 04:19:09;;;;;;;59.67;31.50;;;7.40;99.90;;;-148.53;100.00;63986.66;5025479;28;20034;-81
2024/03/05 04:21:45;;;;;;;53.97;31.65;;;7.40;99.90;;;-148.53;100.00;63986.66;5025570;28;20389;-80
2024/03/05 04:24:13;;;;;;;56.65;31.55;;;7.40;99.90;;;-148.53;100.00;63986.66;5018230;28;20033;-81
2024/03/05 04:26:41;;;;;;;57.40;31.77;;;7.40;99.90;;;-148.53;100.00;63986.66;5014876;28;20042;-80
2024/03/05 04:29:09;;;;;;;55.47;31.60;;;7.40;99.90;;;-148.53;100.00;63986.66;5026300;28;20088;-80
2024/03/05 04:31:37;;;;;;;57.42;30.25;;;7.30;99.90;;;-148.53;100.00;63986.66;5016040;28;20037;-80
2024/03/05 04:34:05;;;;;;;52.17;29.45;;;7.30;99.90;;;-148.53;100.00;63986.66;5041465;28;20088;-81
2024/03/05 04:36:37;;;;;;;48.45;29.25;;;7.30;99.90;;;-148.53;100.00;63986.66;5027117;28;20455;-81
2024/03/05 04:39:02;;;;;;;55.72;30.42;;;7.20;99.90;;;-148.53;100.00;63986.66;5020337;28;20034;-81
2024/03/05 04:41:28;;;;;;;55.45;29.80;;;7.20;99.90;;;-148.53;100.00;63986.66;5022290;28;20037;-81
2024/03/05 04:43:55;;;;;;;48.35;28.80;;;7.20;99.90;;;-148.53;100.00;63986.66;5015845;28;20044;-81
2024/03/05 04:46:21;;;;;;;52.38;29.23;;;7.20;99.90;;;-148.53;100.00;63986.66;5022070;28;20052;-81
2024/03/05 04:48:48;;;;;;;51.55;31.17;;;7.20;99.90;;;-148.53;100.00;63986.66;5019623;28;20041;-82
2024/03/05 04:51:15;;;;;;;52.10;30.35;;;7.20;99.90;;;-148.53;100.00;63986.66;5030155;28;20048;-81
2024/03/05 04:53:40;;;;;;;53.50;30.25;;;7.20;99.90;;;-148.53;100.00;63986.66;5025798;28;20037;-82
2024/03/05 04:56:06;;;;;;;48.17;28.58;;;7.10;99.90;;;-148.53;100.00;63986.66;5015732;28;20401;-82
2024/03/05 04:58:33;;;;;;;57.47;30.70;;;7.10;99.90;;;-148.53;100.00;63986.66;5023585;28;20300;-81
2024/03/05 05:00:58;;;;;;;49.97;29.02;;;7.10;99.90;;;-148.53;100.00;63986.66;5021723;28;20104;-81
2024/03/05 05:03:24;;;;;;;49.45;28.95;;;7.10;99.90;;;-148.53;100.00;63986.66;5019362;28;20038;-81
2024/03/05 05:05:50;;;;;;;46.78;28.73;;;7.00;99.90;;;-148.53;100.00;63986.66;5015417;28;20084;-81
2024/03/05 05:08:19;;;;;;;48.40;29.00;;;7.00;99.90;;;-148.53;100.00;63986.66;5015555;28;20030;-82
2024/03/05 05:10:45;;;;;;;42.80;25.55;;;7.00;99.90;;;-148.53;100.00;63986.66;5014149;28;20052;-81
2024/03/05 05:13:10;;;;;;;42.03;26.13;;;7.00;99.90;;;-148.53;100.00;63986.66;5031103;28;20038;-81
2024/03/05 05:15:36;;;;;;;39.00;23.92;;;6.90;99.90;;;-148.53;100.00;63986.66;5017166;28;20041;-81
2024/03/05 05:18:02;;;;;;;39.92;24.42;;;6.90;99.90;;;-148.53;100.00;63986.66;5018517;28;20045;-81
2024/03/05 05:20:28;;;;;;;38.33;23.30;;;6.80;99.90;;;-148.53;100.00;63986.66;5023196;28;20170;-81
2024/03/05 05:22:53;;;;;;;39.63;23.25;;;6.80;99.90;;;-148.53;100.00;63986.66;5024755;28;20370;-82
2024/03/05 05:25:19;;;;;;;39.33;24.45;;;6.70;99.90;;;-148.53;100.00;63986.66;5021013;28;20080;-81
2024/03/05 05:27:49;;;;;;;37.70;24.95;;;6.70;99.90;;;-148.53;100.00;63986.66;5018989;28;20202;-81
2024/03/05 05:30:23;;;;;;;38.50;23.20;;;6.70;99.90;;;-148.53;100.00;63986.66;5029644;28;20145;-82
2024/03/05 05:32:49;;;;;;;41.10;24.92;;;6.60;99.90;;;-148.53;100.00;63986.66;5020878;28;20095;-82
2024/03/05 05:35:18;;;;;;;42.10;24.08;;;6.60;99.90;;;-148.53;100.00;63986.66;5028615;28;20417;-83
2024/03/05 05:37:45;;;;;;;48.75;24.70;;;6.50;99.90;;;-148.53;100.00;63986.66;5019904;28;20124;-82
2024/03/05 05:40:11;;;;;;;46.22;25.60;;;6.50;99.90;;;-148.53;100.00;63986.66;5030720;28;20099;-82
2024/03/05 05:42:38;;;;;;;42.05;24.58;;;6.50;99.90;;;-148.53;100.00;63986.66;5018578;28;20117;-82
2024/03/05 05:45:08;;;;;;;41.83;24.90;;;6.50;99.90;;;-148.53;100.00;63986.66;5019118;28;20034;-82
2024/03/05 05:47:42;;;;;;;47.75;25.83;;;6.50;99.90;;;-148.53;100.00;63986.66;5015062;28;20393;-82
2024/03/05 05:50:17;;;;;;;43.70;26.30;;;6.50;99.90;;;-148.53;100.00;63986.66;5021145;28;20525;-82
2024/03/05 05:52:52;;;;;;;45.10;25.55;;;6.50;99.90;;;-148.53;100.00;63986.66;5018763;28;20037;-81
2024/03/05 05:55:23;;;;;;;41.40;24.98;;;6.50;99.90;;;-148.53;100.00;63986.66;5026875;28;20124;-83
2024/03/05 05:57:51;;;;;;;43.40;25.70;;;6.50;99.90;;;-148.53;100.00;63986.66;5029409;28;20041;-82
2024/03/05 06:00:22;;;;;;;46.03;25.80;;;6.40;99.90;;;-148.53;100.00;63986.66;5015040;28;20049;-80
2024/03/05 06:02:53;;;;;;;42.70;25.35;;;6.40;99.90;;;-148.53;100.00;63986.66;5023295;28;20041;-81
2024/03/05 06:05:22;;;;;;;43.15;25.83;;;6.40;99.90;;;-148.53;100.00;63986.66;5026471;28;20053;-80
2024/03/05 06:07:48;;;;;;;44.75;24.98;;;6.40;99.90;;;-148.53;100.00;63986.66;5019575;28;20038;-80
2024/03/05 06:10:17;;;;;;;43.83;25.48;;;6.40;99.90;;;-148.53;100.00;63986.66;5026079;28;20374;-80
2024/03/05 06:12:44;;;;;;;44.55;25.92;;;6.50;99.90;;;-148.53;100.00;63986.66;5015940;28;20560;-80
2024/03/05 06:15:10;;;;;;;45.23;26.43;;;6.50;99.90;;;-148.53;100.00;63986.66;5010979;28;20045;-81
2024/03/05 06:17:35;;;;;;;45.55;25.63;;;6.40;99.90;;;-148.53;100.00;63986.66;5011831;28;20310;-81
2024/03/05 06:20:04;;;;;;;39.08;24.60;;;6.40;99.90;;;-148.53;100.00;63986.66;5015158;28;20034;-79
2024/03/05 06:22:30;;;;;;;49.10;26.30;;;6.40;99.90;;;-148.53;100.00;63986.66;5020064;28;20121;-82
2024/03/05 06:24:56;;;;;;;47.22;26.30;;;6.40;99.90;;;-148.53;100.00;63986.66;5024638;28;20021;-80
2024/03/05 06:27:22;;;;;;;40.63;24.50;;;6.40;99.90;;;-148.53;100.00;63986.66;5023738;28;20045;-80
2024/03/05 06:29:48;;;;;;;45.70;25.90;;;6.40;99.90;;;-148.53;100.00;63986.66;5019499;28;20097;-81
2024/03/05 06:32:13;;;;;;;43.80;26.08;;;6.40;99.90;;;-148.53;100.00;63986.66;5018318;28;20045;-79
2024/03/05 06:34:42;;;;;;;46.92;26.70;;;6.40;99.90;;;-148.53;100.00;63986.66;5019547;28;20032;-81
2024/03/05 06:37:08;;;;;;;44.90;25.83;;;6.40;99.90;;;-148.53;100.00;63986.66;5019396;28;20041;-79
2024/03/05 06:39:35;;;;;;;46.97;26.38;;;6.40;99.90;;;-148.53;100.00;63986.66;5019089;28;20033;-80
2024/03/05 06:42:03;;;;;;;46.35;27.25;;;6.40;99.90;;;-148.53;100.00;63986.66;5013469;28;20040;-80
2024/03/05 06:44:36;;;;;;;45.10;26.90;;;6.40;99.90;;;-148.53;100.00;63986.66;5023220;28;20165;-78
2024/03/05 06:47:04;;;;;;;45.03;26.25;;;6.40;99.90;;;-148.53;100.00;63986.66;5038714;28;20045;-77
2024/03/05 06:49:38;;;;;;;47.25;26.48;;;6.40;99.90;;;-148.53;100.00;63986.66;5020386;28;20089;-77
2024/03/05 06:57:34;;;;;;;44.97;24.95;;;6.40;99.90;;;-148.53;100.00;63986.66;5017951;28;20045;-77
2024/03/05 07:00:03;;;;;;;50.03;27.42;;;6.40;99.90;;;-148.53;100.00;63986.66;5014006;28;20045;-77
2024/03/05 07:02:30;;;;;;;43.88;25.92;;;6.30;99.90;;;-148.53;100.00;63986.66;5030249;28;20044;-77
2024/03/05 07:04:56;;;;;;;39.08;25.60;;;6.20;99.90;;;-148.53;100.00;63986.66;5021174;28;20080;-77
2024/03/05 07:07:22;;;;;;;48.28;25.65;;;6.30;99.90;;;-148.53;100.00;63986.66;5028870;28;20044;-77
2024/03/05 07:09:47;;;;;;;43.13;26.40;;;6.30;99.90;;;-148.53;100.00;63986.66;5016984;28;20410;-77
2024/03/05 07:12:15;;;;;;;44.05;26.85;;;6.20;99.90;;;-148.53;100.00;63986.66;5024884;28;20029;-77
2024/03/05 07:14:40;;;;;;;44.42;27.00;;;6.20;99.90;;;-148.53;100.00;63986.66;5020195;28;20588;-78
2024/03/05 07:17:06;;;;;;;48.03;26.77;;;6.20;99.90;;;-148.53;100.00;63986.66;5019128;28;20038;-77
2024/03/05 07:19:32;;;;;;;45.55;27.38;;;6.20;99.90;;;-148.53;100.00;63986.66;5029483;28;20045;-79
2024/03/05 07:21:58;;;;;;;46.72;27.90;;;6.10;99.90;;;-148.53;100.00;63986.66;5013420;28;20550;-80
2024/03/05 07:24:23;;;;;;;47.53;28.55;;;6.10;99.90;;;-148.53;100.00;63986.66;5013279;28;20033;-79
2024/03/05 07:26:49;;;;;;;49.80;27.92;;;6.10;99.90;;;-148.53;100.00;63986.66;5018030;28;20452;-79
2024/03/05 07:29:15;;;;;;;49.10;27.73;;;6.20;99.90;;;-148.53;100.00;63986.66;5021064;28;20045;-78
2024/03/05 07:31:41;;;;;;;52.05;28.48;;;6.20;99.90;;;-148.53;100.00;63986.66;5029668;28;20420;-79
2024/03/05 07:34:07;;;;;;;54.42;29.20;;;6.10;99.90;;;-148.53;100.00;63986.66;5028913;28;20030;-79
2024/03/05 07:36:33;;;;;;;49.78;30.42;;;6.20;99.90;;;-148.53;100.00;63986.66;5022814;28;20457;-79
2024/03/05 07:38:59;;;;;;;53.53;29.67;;;6.20;99.90;;;-148.53;100.00;63986.66;5021196;28;20467;-79
2024/03/05 07:41:25;;;;;;;54.65;30.52;;;6.20;99.90;;;-148.53;100.00;63986.66;5017955;28;20038;-80
2024/03/05 07:43:51;;;;;;;55.05;30.27;;;6.20;99.90;;;-148.53;100.00;63986.66;5017886;28;20095;-80
2024/03/05 07:46:19;;;;;;;51.58;29.38;;;6.20;99.90;;;-148.53;100.00;63986.66;5016892;28;20397;-80
2024/03/05 07:48:45;;;;;;;53.22;31.17;;;6.20;99.90;;;-148.53;100.00;63986.66;5027774;28;20029;-80
2024/03/05 07:51:11;;;;;;;58.97;31.95;;;6.20;99.90;;;-148.53;100.00;63986.66;5017497;28;20088;-79
2024/03/05 07:53:37;;;;;;;49.05;29.83;;;6.20;99.90;;;-148.53;100.00;63986.66;5014743;28;20190;-81
2024/03/05 07:56:04;;;;;;;52.25;28.90;;;6.20;99.90;;;-148.53;100.00;63986.66;5019434;28;20036;-80
2024/03/05 07:58:30;;;;;;;57.55;30.88;;;6.10;99.90;;;-148.53;100.00;63986.66;5024336;28;20042;-81
2024/03/05 08:00:58;;;;;;;54.92;30.88;;;6.10;99.90;;;-148.53;100.00;63986.66;5028498;28;20038;-81
2024/03/05 08:03:23;;;;;;;53.47;29.85;;;6.10;99.90;;;-148.53;100.00;63986.66;5013061;28;20401;-79
2024/03/05 08:05:50;;;;;;;55.90;32.08;;;6.10;99.90;;;-148.53;100.00;63986.66;5012648;28;20046;-79
2024/03/05 08:08:16;;;;;;;56.47;31.80;;;6.10;99.90;;;-148.53;100.00;63986.66;5012244;28;20034;-79
2024/03/05 08:10:42;;;;;;;57.60;31.48;;;6.10;99.90;;;-148.53;100.00;63986.66;5017514;28;20087;-79
2024/03/05 08:13:07;;;;;;;59.85;31.85;;;6.10;99.90;;;-148.53;100.00;63986.66;5012770;28;20022;-78
2024/03/05 08:15:33;;;;;;;59.00;31.77;;;6.10;99.90;;;-148.53;100.00;63986.66;5017912;28;20406;-78
2024/03/05 08:17:59;;;;;;;51.03;30.08;;;6.10;99.90;;;-148.53;100.00;63986.66;5026627;28;20021;-78
2024/03/05 08:20:26;;;;;;;50.97;30.80;;;6.10;99.90;;;-148.53;100.00;63986.66;5021357;28;20871;-79
2024/03/05 08:22:54;;;;;;;53.60;31.73;;;6.10;99.90;;;-148.53;100.00;63986.66;5012122;28;20033;-78
2024/03/05 08:25:21;;;;;;;;;;;6.10;99.90;;;-148.53;100.00;63986.66;5023990;28;20290;-79
2024/03/05 08:27:51;;;;;;;50.15;28.52;;;6.10;99.90;;;-148.53;100.00;63986.66;5027914;28;20406;-79
2024/03/05 08:30:22;;;;;;;53.83;29.13;;;6.10;99.90;;;-148.53;100.00;63986.66;5029009;28;20088;-78
2024/03/05 08:32:49;;;;;;;52.45;29.73;;;6.10;99.90;;;-148.53;100.00;63986.66;5023486;28;20033;-79
2024/03/05 08:35:15;;;;;;;49.83;30.05;;;6.20;99.90;;;-148.53;100.00;63986.66;5008191;28;20053;-79
2024/03/05 08:37:45;;;;;;;58.15;30.20;;;6.20;99.90;;;-148.53;100.00;63986.66;5033993;28;20065;-78
2024/03/05 08:40:21;;;;;;;56.70;30.38;;;6.20;99.90;;;-148.53;100.00;63986.66;5020395;28;20125;-78
2024/03/05 08:42:55;;;;;;;54.72;30.25;;;6.20;99.90;;;-148.53;100.00;63986.66;5019691;28;20113;-79
2024/03/05 08:45:24;;;;;;;51.35;30.13;;;6.20;99.90;;;-148.53;100.00;63986.66;5011467;28;20026;-78
2024/03/05 08:47:53;;;;;;;49.38;29.48;;;6.30;99.90;;;-148.53;100.00;63986.66;5035380;28;20041;-78
2024/03/05 08:50:20;;;;;;;49.63;28.88;;;6.30;99.90;;;-148.53;100.00;63986.66;5018690;28;20053;-78
2024/03/05 08:52:46;;;;;;;55.15;29.80;;;6.40;99.90;;;-148.53;100.00;63986.66;5048248;28;20722;-79
2024/03/05 08:55:14;;;;;;;47.17;28.42;;;6.30;99.90;;;-148.53;100.00;63986.66;5022191;28;20033;-78
2024/03/05 08:57:44;;;;;;;48.17;28.83;;;6.30;99.90;;;-148.53;100.00;63986.66;5017676;28;20092;-78
2024/03/05 09:00:19;;;;;;;53.58;28.83;;;6.30;99.90;;;-148.53;100.00;63986.66;5021968;28;20494;-78
2024/03/05 09:02:45;;;;;;;49.10;29.58;;;6.40;99.90;;;-148.53;100.00;63986.66;5026824;28;20026;-79
2024/03/05 09:05:12;;;;;;;50.22;29.13;;;6.40;99.90;;;-148.53;100.00;63986.66;5047740;28;20409;-78
2024/03/05 09:07:42;;;;;;;50.30;29.25;;;6.50;99.90;;;-148.53;100.00;63986.66;5026429;28;20038;-78
2024/03/05 09:10:10;;;;;;;48.65;28.33;;;6.50;99.90;;;-148.53;100.00;63986.66;5025677;28;20033;-79
2024/03/05 09:12:36;;;;;;;45.50;27.63;;;6.50;99.90;;;-148.53;100.00;63986.66;5022588;28;20036;-79
2024/03/05 09:15:05;;;;;;;50.88;28.33;;;6.50;99.90;;;-148.53;100.00;63986.66;5033052;28;20133;-78
2024/03/05 09:17:34;;;;;;;49.25;29.15;;;6.60;99.90;;;-148.53;100.00;63986.66;5022754;28;20434;-77
2024/03/05 09:20:11;;;;;;;50.75;28.50;;;6.60;99.90;;;-148.53;100.00;63986.66;5030095;28;20414;-77
2024/03/05 09:22:36;;;;;;;47.00;27.45;;;6.60;99.90;;;-148.53;100.00;63986.66;5020984;28;20113;-78
2024/03/05 09:25:03;;;;;;;47.85;26.95;;;6.60;99.90;;;-148.53;100.00;63986.66;5030361;28;20092;-78
2024/03/05 09:27:29;;;;;;;43.53;26.50;;;6.60;99.90;;;-148.53;100.00;63986.66;5026791;28;20041;-77
2024/03/05 09:29:55;;;;;;;46.83;27.27;;;6.70;99.90;;;-148.53;100.00;63986.66;5019799;28;20040;-79
2024/03/05 09:32:21;;;;;;;46.80;27.27;;;6.70;99.90;;;-148.53;100.00;63986.66;5022397;28;20053;-79
2024/03/05 09:34:47;;;;;;;46.05;26.67;;;6.70;99.90;;;-148.53;100.00;63986.66;5015644;28;20049;-79
2024/03/05 09:37:12;;;;;;;46.92;27.70;;;6.70;99.90;;;-148.53;100.00;63986.66;5019952;28;20033;-78
2024/03/05 09:39:38;;;;;;;42.47;26.30;;;6.60;99.90;;;-148.53;100.00;63986.66;5021161;28;20042;-79
2024/03/05 09:42:04;;;;;;;42.72;26.33;;;6.70;99.90;;;-148.53;100.00;63986.66;5017108;28;20041;-79
2024/03/05 09:44:30;;;;;;;44.58;26.65;;;6.60;99.90;;;-148.53;100.00;63986.66;5034912;28;20040;-79
2024/03/05 09:46:59;;;;;;;47.50;25.73;;;6.70;99.90;;;-148.53;100.00;63986.66;5036995;28;20132;-79
2024/03/05 09:49:25;;;;;;;40.45;25.20;;;6.60;99.90;;;-148.53;100.00;63986.66;5014999;28;20418;-78
2024/03/05 09:51:51;;;;;;;41.25;25.70;;;6.60;99.90;;;-148.53;100.00;63986.66;5014670;28;20026;-78
2024/03/05 09:54:16;;;;;;;42.58;24.52;;;6.60;99.90;;;-148.53;100.00;63986.66;5015157;28;20542;-80
2024/03/05 09:56:45;;;;;;;41.40;25.33;;;6.60;99.90;;;-148.53;100.00;63986.66;5013892;28;20096;-79
2024/03/05 09:59:13;;;;;;;47.10;25.00;;;6.60;99.90;;;-148.53;100.00;63986.66;5026759;28;20112;-79